Terminal Aerodrome Forecast
Issued by NWS Tampa Bay Area, FL

Home | Current Version | Previous Version | Text Only | Print | Product List | Glossary Off
Versions: 1 2 3 4 5 6 7 8 9 10 11 12 13 14 15 16 17 18

000
FTUS42 KTBW 280500 RRA
TAFSRQ
TAF
KSRQ 280550Z 2806/0106 05011KT P6SM OVC015
     FM280900 05011KT P6SM VCSH OVC010
     FM281500 07012KT P6SM VCSH BKN020
     FM281800 07010KT P6SM VCSH BKN035
     FM010100 06008KT P6SM BKN020=

USA.gov is the U.S. government's official web portal to all federal, state and local government web resources and services.